Time;durP1;ratioP1;P1;durP2;ratioP2;P2;SDS_P1;SDS_P2;PMS_P1;PMS_P2;Temp;Humidity;BMP_temperature;BMP_pressure;BME280_temperature;BME280_humidity;BME280_pressure;Samples;Min_cycle;Max_cycle;Signal;HPM_P1;HPM_P2
2023/07/02 00:01:12;;;;;;;21.42;17.98;;;20.40;99.90;;;;;;4983507;28;20223;-73
2023/07/02 00:04:01;;;;;;;25.20;17.60;;;20.40;99.90;;;;;;4996734;28;20222;-73
2023/07/02 00:06:52;;;;;;;23.08;18.08;;;20.40;99.90;;;;;;4996135;28;20226;-73
2023/07/02 00:09:41;;;;;;;23.52;18.05;;;20.40;99.90;;;;;;4970811;28;20761;-72
2023/07/02 00:12:30;;;;;;;24.65;17.42;;;20.30;99.90;;;;;;4984805;28;20839;-74
2023/07/02 00:15:19;;;;;;;25.25;17.60;;;20.30;99.90;;;;;;4983743;28;20239;-73
2023/07/02 00:18:08;;;;;;;23.27;17.77;;;20.30;99.90;;;;;;4988024;28;20265;-73
2023/07/02 00:20:57;;;;;;;24.25;18.13;;;20.30;99.90;;;;;;4981818;28;20219;-73
2023/07/02 00:23:48;;;;;;;24.90;18.98;;;20.20;99.90;;;;;;4980341;28;20232;-72
2023/07/02 00:26:38;;;;;;;23.58;17.15;;;20.20;99.90;;;;;;4981891;28;20231;-73
2023/07/02 00:29:29;;;;;;;28.65;19.30;;;20.20;99.90;;;;;;4984580;28;20786;-72
2023/07/02 00:32:18;;;;;;;24.02;18.50;;;20.10;99.90;;;;;;4990672;28;20247;-73
2023/07/02 00:35:08;;;;;;;24.63;18.02;;;20.10;99.90;;;;;;4979692;28;20273;-73
2023/07/02 00:37:57;;;;;;;26.13;19.73;;;20.10;99.90;;;;;;4982465;28;20226;-72
2023/07/02 00:40:47;;;;;;;22.67;18.27;;;20.00;99.90;;;;;;4980152;28;20242;-73
2023/07/02 00:43:39;;;;;;;26.27;19.60;;;20.00;99.90;;;;;;4988865;28;20741;-72
2023/07/02 00:46:28;;;;;;;24.25;18.98;;;20.00;99.90;;;;;;4982435;28;20231;-72
2023/07/02 00:49:17;;;;;;;24.27;18.30;;;19.90;99.90;;;;;;4986302;28;20226;-72
2023/07/02 00:52:07;;;;;;;24.58;18.83;;;19.90;99.90;;;;;;4985562;28;20223;-74
2023/07/02 00:54:56;;;;;;;24.95;19.25;;;19.90;99.90;;;;;;4982274;28;20730;-72
2023/07/02 00:57:47;;;;;;;25.02;18.83;;;19.90;99.90;;;;;;4991581;28;20734;-72
2023/07/02 01:00:36;;;;;;;25.05;18.63;;;19.90;99.90;;;;;;4966780;28;20243;-73
2023/07/02 01:03:25;;;;;;;26.38;18.95;;;19.80;99.90;;;;;;4986761;28;20808;-72
2023/07/02 01:06:15;;;;;;;22.98;17.73;;;19.80;99.90;;;;;;4985991;28;20335;-73
2023/07/02 01:09:06;;;;;;;23.60;17.88;;;19.80;99.90;;;;;;4979327;28;20238;-73
2023/07/02 01:11:57;;;;;;;22.38;17.90;;;19.80;99.90;;;;;;4977006;28;20221;-74
2023/07/02 01:14:51;;;;;;;23.38;18.15;;;19.70;99.90;;;;;;4983968;28;20322;-72
2023/07/02 01:17:41;;;;;;;23.73;17.95;;;19.70;99.90;;;;;;4989783;28;20762;-73
2023/07/02 01:20:33;;;;;;;22.95;17.73;;;19.70;99.90;;;;;;4985785;28;20227;-74
2023/07/02 01:23:22;;;;;;;22.67;17.83;;;19.70;99.90;;;;;;4977894;28;20358;-74
2023/07/02 01:26:12;;;;;;;23.55;17.52;;;19.70;99.90;;;;;;4996277;28;20231;-72
2023/07/02 01:29:02;;;;;;;25.40;18.23;;;19.70;99.90;;;;;;4985642;28;20237;-72
2023/07/02 01:31:51;;;;;;;23.60;17.60;;;19.70;99.90;;;;;;4980730;28;20250;-72
2023/07/02 01:34:43;;;;;;;23.73;18.08;;;19.70;99.90;;;;;;4982582;28;20246;-72
2023/07/02 01:37:37;;;;;;;26.73;18.35;;;19.60;99.90;;;;;;4972285;28;20230;-72
2023/07/02 01:40:27;;;;;;;23.00;18.02;;;19.60;99.90;;;;;;4983428;28;20234;-73
2023/07/02 01:43:17;;;;;;;26.77;19.50;;;19.60;99.90;;;;;;4984609;28;20706;-72
2023/07/02 01:46:08;;;;;;;24.15;17.83;;;19.50;99.90;;;;;;4965174;28;20239;-73
2023/07/02 01:48:58;;;;;;;21.83;18.08;;;19.50;99.90;;;;;;4994720;28;20246;-72
2023/07/02 01:51:49;;;;;;;23.92;18.55;;;19.50;99.90;;;;;;4988466;28;20583;-72
2023/07/02 01:54:39;;;;;;;24.75;18.88;;;19.50;99.90;;;;;;4986233;28;20840;-72
2023/07/02 01:57:33;;;;;;;27.98;18.98;;;19.50;99.90;;;;;;4984413;28;20219;-72
2023/07/02 02:00:22;;;;;;;24.40;18.25;;;19.60;99.90;;;;;;4974797;28;20303;-72
2023/07/02 02:03:11;;;;;;;25.17;18.70;;;19.60;99.90;;;;;;4983320;28;20227;-73
2023/07/02 02:06:00;;;;;;;23.80;18.67;;;19.60;99.90;;;;;;4981829;28;20226;-71
2023/07/02 02:08:48;;;;;;;25.75;19.02;;;19.70;99.90;;;;;;4985416;28;20361;-71
2023/07/02 02:11:42;;;;;;;22.40;17.77;;;19.70;99.90;;;;;;4992883;28;20237;-71
2023/07/02 02:14:31;;;;;;;26.52;18.77;;;19.70;99.90;;;;;;4992529;28;20399;-72
2023/07/02 02:17:20;;;;;;;23.17;18.20;;;19.60;99.90;;;;;;4979678;28;20599;-72
2023/07/02 02:20:10;;;;;;;21.17;17.27;;;19.60;99.90;;;;;;4985684;28;20253;-70
2023/07/02 02:22:59;;;;;;;29.38;18.60;;;19.60;99.90;;;;;;4990706;28;20233;-71
2023/07/02 02:25:48;;;;;;;23.77;18.25;;;19.60;99.90;;;;;;4973407;28;20230;-72
2023/07/02 02:28:38;;;;;;;24.35;17.98;;;19.60;99.90;;;;;;4973664;28;20309;-73
2023/07/02 02:31:27;;;;;;;24.40;17.83;;;19.70;99.90;;;;;;4984274;28;20290;-74
2023/07/02 02:34:16;;;;;;;22.20;17.40;;;19.70;99.90;;;;;;4981053;28;20226;-72
2023/07/02 02:37:06;;;;;;;21.00;16.75;;;19.70;99.90;;;;;;4983411;28;20257;-73
2023/07/02 02:39:57;;;;;;;24.50;18.05;;;19.70;99.90;;;;;;4974498;28;20392;-72
2023/07/02 02:42:46;;;;;;;22.63;17.52;;;19.70;99.90;;;;;;4977623;28;20333;-73
2023/07/02 02:45:37;;;;;;;23.35;16.83;;;19.60;99.90;;;;;;4985884;28;20238;-71
2023/07/02 02:48:26;;;;;;;21.27;16.67;;;19.70;99.90;;;;;;4987093;28;20281;-69
2023/07/02 02:51:14;;;;;;;23.75;17.95;;;19.70;99.90;;;;;;4982617;28;20305;-72
2023/07/02 02:54:03;;;;;;;23.10;16.35;;;19.70;99.90;;;;;;4997963;28;20294;-74
2023/07/02 02:56:52;;;;;;;19.88;16.75;;;19.70;99.90;;;;;;4980967;28;20239;-73
2023/07/02 02:59:41;;;;;;;21.27;16.13;;;19.70;99.90;;;;;;4978103;28;20226;-73
2023/07/02 03:02:35;;;;;;;24.30;17.15;;;19.60;99.90;;;;;;4981985;28;20219;-71
2023/07/02 03:05:24;;;;;;;22.77;17.17;;;19.60;99.90;;;;;;4965709;28;20673;-72
2023/07/02 03:08:13;;;;;;;20.83;16.75;;;19.60;99.90;;;;;;4982535;28;20230;-72
2023/07/02 03:11:02;;;;;;;23.05;16.52;;;19.60;99.90;;;;;;4972054;28;20293;-72
2023/07/02 03:13:51;;;;;;;21.48;17.48;;;19.60;99.90;;;;;;4975589;28;20317;-72
2023/07/02 03:16:40;;;;;;;20.00;16.50;;;19.70;99.90;;;;;;4971397;28;20223;-72
2023/07/02 03:19:30;;;;;;;21.88;15.68;;;19.70;99.90;;;;;;4982536;28;20772;-72
2023/07/02 03:22:19;;;;;;;23.85;16.63;;;19.70;99.90;;;;;;4983086;28;20239;-72
2023/07/02 03:25:09;;;;;;;18.98;16.00;;;19.70;99.90;;;;;;4982621;28;20826;-73
2023/07/02 03:27:59;;;;;;;21.48;16.85;;;19.70;99.90;;;;;;4984710;28;20247;-72
2023/07/02 03:30:48;;;;;;;19.45;15.63;;;19.70;99.90;;;;;;4980780;28;20532;-72
2023/07/02 03:33:37;;;;;;;20.58;16.10;;;19.80;99.90;;;;;;4972181;28;20239;-73
2023/07/02 03:36:27;;;;;;;21.50;16.38;;;19.80;99.90;;;;;;4975070;28;20598;-73
2023/07/02 03:39:17;;;;;;;19.70;16.35;;;19.80;99.90;;;;;;4978133;28;20222;-73
2023/07/02 03:42:07;;;;;;;21.30;16.30;;;19.70;99.90;;;;;;4982012;28;20227;-72
2023/07/02 03:44:55;;;;;;;20.33;16.08;;;19.70;99.90;;;;;;4976856;28;20606;-73
2023/07/02 03:47:45;;;;;;;18.30;15.20;;;19.70;99.90;;;;;;4978506;28;20219;-72
2023/07/02 03:50:33;;;;;;;19.83;16.52;;;19.80;99.90;;;;;;4970362;28;20305;-72
2023/07/02 03:53:23;;;;;;;17.58;14.73;;;19.80;99.90;;;;;;4973316;28;20223;-73
2023/07/02 03:56:12;;;;;;;19.15;15.25;;;19.80;99.90;;;;;;4982873;28;20364;-72
2023/07/02 03:59:01;;;;;;;19.67;15.18;;;19.90;99.90;;;;;;4986878;28;20223;-73
2023/07/02 04:01:51;;;;;;;20.95;14.90;;;19.90;99.90;;;;;;4981031;28;20242;-72
2023/07/02 04:04:40;;;;;;;19.05;14.40;;;20.00;99.90;;;;;;4978309;28;20737;-73
2023/07/02 04:07:30;;;;;;;18.27;14.57;;;20.00;99.90;;;;;;4965039;28;20235;-73
2023/07/02 04:10:20;;;;;;;15.70;13.63;;;20.00;99.90;;;;;;4983582;28;20231;-73
2023/07/02 04:13:09;;;;;;;22.15;15.50;;;20.10;99.90;;;;;;4981974;28;20215;-73
2023/07/02 04:15:58;;;;;;;16.85;13.60;;;20.10;99.90;;;;;;4986464;28;20239;-72
2023/07/02 04:18:47;;;;;;;19.20;14.77;;;20.10;99.90;;;;;;4982639;28;20237;-73
2023/07/02 04:21:35;;;;;;;17.15;14.40;;;20.10;99.90;;;;;;4985724;28;20227;-73
2023/07/02 04:24:25;;;;;;;19.05;15.10;;;20.10;99.90;;;;;;4975104;28;21043;-73
2023/07/02 04:27:17;;;;;;;18.08;14.13;;;20.10;99.90;;;;;;4980129;28;20228;-73
2023/07/02 04:30:26;;;;;;;16.52;13.77;;;20.20;99.90;;;;;;4972570;28;20236;-72
2023/07/02 04:33:16;;;;;;;16.08;13.07;;;20.20;99.90;;;;;;4982614;28;20710;-72
2023/07/02 04:36:05;;;;;;;18.00;13.80;;;20.20;99.90;;;;;;4987529;28;21058;-73
2023/07/02 04:38:54;;;;;;;15.98;12.52;;;20.30;99.90;;;;;;4978236;28;20241;-72
2023/07/02 04:41:43;;;;;;;17.90;13.18;;;20.40;99.90;;;;;;4985724;28;20227;-72
2023/07/02 04:44:33;;;;;;;17.77;13.07;;;20.40;99.90;;;;;;4987806;28;20234;-72
2023/07/02 04:47:22;;;;;;;16.65;14.10;;;20.40;99.90;;;;;;4984048;28;20286;-72
2023/07/02 04:50:11;;;;;;;16.88;12.95;;;20.40;99.90;;;;;;4981833;28;20270;-72
2023/07/02 04:53:00;;;;;;;16.38;12.88;;;20.30;99.90;;;;;;4965617;28;20338;-73
2023/07/02 04:55:49;;;;;;;17.98;12.65;;;20.50;99.90;;;;;;4983453;28;20223;-72
2023/07/02 04:58:38;;;;;;;17.83;12.93;;;20.60;99.90;;;;;;4985561;28;20241;-72
2023/07/02 05:01:30;;;;;;;15.80;13.05;;;20.50;99.90;;;;;;4975313;28;20261;-73
2023/07/02 05:04:19;;;;;;;18.65;13.23;;;20.50;99.90;;;;;;4983928;28;20322;-72
2023/07/02 05:07:08;;;;;;;16.88;12.50;;;20.50;99.90;;;;;;4980852;28;20207;-73
2023/07/02 05:09:56;;;;;;;14.73;12.05;;;20.50;99.90;;;;;;4977497;28;20223;-71
2023/07/02 05:12:45;;;;;;;15.77;11.88;;;20.60;99.90;;;;;;4979698;28;20837;-72
2023/07/02 05:15:34;;;;;;;13.32;11.82;;;20.60;99.90;;;;;;4972614;28;20269;-71
2023/07/02 05:18:24;;;;;;;14.45;11.50;;;20.70;99.90;;;;;;4984545;28;20230;-73
2023/07/02 05:21:13;;;;;;;13.45;10.57;;;20.80;99.90;;;;;;4986562;28;20628;-72
2023/07/02 05:24:02;;;;;;;12.93;10.32;;;20.90;99.90;;;;;;4981022;28;20710;-73
2023/07/02 05:26:51;;;;;;;11.68;9.85;;;20.90;99.90;;;;;;4994450;28;20218;-72
2023/07/02 05:29:40;;;;;;;11.27;9.88;;;20.90;99.90;;;;;;4985916;28;20258;-71
2023/07/02 05:32:29;;;;;;;11.80;9.45;;;21.00;99.90;;;;;;4977148;28;20237;-72
2023/07/02 05:35:19;;;;;;;10.43;8.65;;;20.90;99.90;;;;;;4985712;28;20329;-72
2023/07/02 05:38:08;;;;;;;12.05;9.10;;;21.00;99.90;;;;;;4985118;28;20698;-72
2023/07/02 05:40:57;;;;;;;10.13;8.70;;;20.90;99.90;;;;;;4980084;28;20215;-71
2023/07/02 05:43:46;;;;;;;11.10;9.05;;;21.00;99.90;;;;;;4984613;28;21124;-72
2023/07/02 05:46:35;;;;;;;13.27;9.05;;;21.10;99.90;;;;;;4965292;28;20588;-72
2023/07/02 05:49:24;;;;;;;12.73;8.27;;;21.20;99.90;;;;;;4987725;28;20428;-72
2023/07/02 05:52:14;;;;;;;10.13;9.00;;;21.20;99.90;;;;;;4984024;28;20298;-73
2023/07/02 05:55:03;;;;;;;10.85;8.63;;;21.30;99.90;;;;;;4982294;28;20223;-74
2023/07/02 05:57:52;;;;;;;9.80;8.10;;;21.30;99.90;;;;;;4986631;28;21160;-72
2023/07/02 06:00:41;;;;;;;10.13;8.07;;;21.40;99.90;;;;;;4965717;28;20235;-72
2023/07/02 06:03:30;;;;;;;11.48;7.97;;;21.40;99.90;;;;;;4971250;28;20226;-72
2023/07/02 06:06:22;;;;;;;11.55;8.60;;;21.40;99.90;;;;;;4985869;28;20234;-72
2023/07/02 06:09:12;;;;;;;10.27;7.97;;;21.40;99.90;;;;;;4985019;28;20318;-73
2023/07/02 06:12:01;;;;;;;10.38;7.93;;;21.40;99.90;;;;;;4979861;28;20701;-72
2023/07/02 06:14:50;;;;;;;9.85;7.97;;;21.40;99.90;;;;;;4982025;28;20776;-73
2023/07/02 06:17:38;;;;;;;15.20;8.73;;;21.40;99.90;;;;;;4982789;28;20223;-73
2023/07/02 06:20:27;;;;;;;9.95;7.45;;;21.50;99.90;;;;;;4975755;28;20281;-73
2023/07/02 06:23:16;;;;;;;10.30;8.30;;;21.60;99.90;;;;;;4980332;28;20219;-72
2023/07/02 06:26:07;;;;;;;11.90;8.20;;;21.80;99.90;;;;;;4997386;28;20223;-72
2023/07/02 06:28:56;;;;;;;10.90;8.00;;;21.80;99.90;;;;;;4998536;28;20218;-73
2023/07/02 06:31:45;;;;;;;12.95;8.50;;;21.70;99.90;;;;;;4977366;28;20230;-72
2023/07/02 06:34:34;;;;;;;11.02;8.35;;;21.80;99.90;;;;;;4989483;28;20270;-73
2023/07/02 06:37:23;;;;;;;9.48;7.95;;;21.80;99.90;;;;;;4983186;28;20231;-73
2023/07/02 06:40:12;;;;;;;12.27;8.52;;;21.90;99.90;;;;;;4976095;28;20344;-73
2023/07/02 06:43:02;;;;;;;11.73;7.22;;;22.00;99.90;;;;;;4985807;28;20226;-71
2023/07/02 06:45:51;;;;;;;11.57;7.28;;;22.10;99.90;;;;;;4981650;28;20238;-70
2023/07/02 06:48:40;;;;;;;12.57;6.85;;;22.20;99.90;;;;;;4990755;28;20218;-72
2023/07/02 06:51:29;;;;;;;11.88;6.80;;;22.10;99.90;;;;;;4977756;28;20231;-71
2023/07/02 06:54:18;;;;;;;8.95;7.00;;;22.10;99.90;;;;;;4984900;28;20219;-72
2023/07/02 06:57:07;;;;;;;10.93;7.15;;;22.00;99.90;;;;;;4973360;28;20419;-73
2023/07/02 07:00:04;;;;;;;8.60;6.90;;;22.00;99.90;;;;;;4983224;28;20710;-74
2023/07/02 07:02:53;;;;;;;10.60;6.57;;;22.20;99.90;;;;;;4984932;28;20297;-72
2023/07/02 07:05:42;;;;;;;8.10;6.50;;;22.50;99.90;;;;;;4980496;28;20235;-75
2023/07/02 07:08:31;;;;;;;12.82;7.18;;;22.70;99.90;;;;;;4984948;28;20235;-72
2023/07/02 07:11:19;;;;;;;12.73;6.93;;;23.00;99.90;;;;;;4983980;28;20235;-73
2023/07/02 07:14:08;;;;;;;9.95;5.93;;;23.20;99.90;;;;;;4984058;28;20227;-73
2023/07/02 07:16:58;;;;;;;8.18;6.60;;;23.20;99.90;;;;;;4977788;28;20301;-74
2023/07/02 07:19:47;;;;;;;8.30;6.30;;;23.00;99.90;;;;;;4987242;28;20359;-69
2023/07/02 07:22:36;;;;;;;10.00;6.70;;;22.70;99.90;;;;;;4984564;28;20227;-73
2023/07/02 07:25:25;;;;;;;8.05;6.25;;;22.60;99.90;;;;;;4985860;28;20222;-73
2023/07/02 07:28:15;;;;;;;12.55;6.60;;;22.60;99.90;;;;;;4988015;28;20654;-74
2023/07/02 07:31:04;;;;;;;11.00;6.00;;;22.60;99.90;;;;;;4988471;28;20313;-74
2023/07/02 07:33:54;;;;;;;8.88;6.05;;;22.60;99.90;;;;;;4986461;28;20278;-73
2023/07/02 07:36:43;;;;;;;8.60;6.38;;;22.70;99.90;;;;;;4988866;28;20304;-73
2023/07/02 07:39:32;;;;;;;7.85;5.97;;;22.70;99.90;;;;;;4979806;28;20232;-74
2023/07/02 07:42:21;;;;;;;7.97;5.97;;;22.80;99.90;;;;;;4979407;28;20247;-73
2023/07/02 07:45:11;;;;;;;7.40;5.65;;;22.70;99.90;;;;;;4982226;28;20222;-74
2023/07/02 07:48:00;;;;;;;8.82;5.20;;;22.50;99.90;;;;;;5001654;28;20771;-73
2023/07/02 07:50:51;;;;;;;5.20;4.20;;;22.40;99.90;;;;;;4971323;28;20226;-74
2023/07/02 07:53:40;;;;;;;7.03;5.13;;;22.30;99.90;;;;;;4975433;28;21003;-74
2023/07/02 07:56:28;;;;;;;8.95;5.30;;;22.20;99.90;;;;;;4983156;28;20227;-73
2023/07/02 07:59:17;;;;;;;5.65;4.50;;;22.20;99.90;;;;;;4973544;28;20898;-74
2023/07/02 08:02:07;;;;;;;8.95;4.35;;;22.40;99.90;;;;;;4987299;28;20360;-75
2023/07/02 08:04:55;;;;;;;7.60;4.50;;;22.30;99.90;;;;;;4986477;28;20226;-74
2023/07/02 08:07:46;;;;;;;7.63;4.55;;;22.40;99.90;;;;;;4986838;28;20221;-72
2023/07/02 08:10:34;;;;;;;7.78;4.53;;;22.20;99.90;;;;;;4986802;28;20242;-74
2023/07/02 08:13:23;;;;;;;6.63;3.97;;;22.10;99.90;;;;;;4979083;28;20449;-73
2023/07/02 08:16:13;;;;;;;5.70;3.92;;;22.20;99.90;;;;;;4975568;28;20313;-72
2023/07/02 08:19:02;;;;;;;5.03;3.97;;;22.30;99.90;;;;;;4986689;28;20246;-74
2023/07/02 08:21:51;;;;;;;6.00;4.43;;;22.40;99.90;;;;;;4995142;28;20230;-73
2023/07/02 08:24:42;;;;;;;8.40;4.43;;;22.50;99.90;;;;;;4978201;28;20354;-75
2023/07/02 08:27:32;;;;;;;9.15;4.32;;;22.60;99.90;;;;;;4986122;28;20235;-73
2023/07/02 08:30:21;;;;;;;6.20;4.30;;;22.80;99.90;;;;;;4981609;28;20237;-72
2023/07/02 08:33:09;;;;;;;8.05;3.90;;;22.80;99.90;;;;;;4991184;28;20236;-73
2023/07/02 08:36:00;;;;;;;6.32;4.05;;;22.80;99.90;;;;;;4992917;28;20243;-73
2023/07/02 08:38:49;;;;;;;4.95;4.10;;;22.70;99.90;;;;;;4985414;28;20239;-73
2023/07/02 08:41:54;;;;;;;5.18;4.05;;;22.40;99.90;;;;;;4997859;28;20229;-72
2023/07/02 08:44:46;;;;;;;6.05;3.58;;;22.40;99.90;;;;;;4981666;28;20226;-72
2023/07/02 08:47:35;;;;;;;7.18;4.38;;;22.30;99.90;;;;;;4988414;28;20697;-72
2023/07/02 08:50:24;;;;;;;7.45;4.30;;;22.30;99.90;;;;;;4971215;28;20234;-73
2023/07/02 08:53:13;;;;;;;5.22;3.97;;;22.20;99.90;;;;;;4985805;28;21799;-72
2023/07/02 08:56:02;;;;;;;4.45;3.55;;;22.40;99.90;;;;;;4986264;28;20227;-72
2023/07/02 08:58:52;;;;;;;8.43;4.22;;;22.70;99.90;;;;;;4983658;28;20473;-72
2023/07/02 09:01:48;;;;;;;6.18;3.28;;;23.10;99.90;;;;;;4981782;28;20702;-73
2023/07/02 09:04:36;;;;;;;6.68;3.30;;;22.70;99.90;;;;;;4983075;28;20576;-73
2023/07/02 09:07:25;;;;;;;3.65;3.08;;;22.70;99.90;;;;;;4974202;28;20229;-72
2023/07/02 09:10:27;;;;;;;6.00;3.10;;;22.70;99.90;;;;;;4985458;28;20306;-73
2023/07/02 09:13:16;;;;;;;3.58;2.83;;;22.60;99.90;;;;;;4980626;28;20356;-74
2023/07/02 09:16:06;;;;;;;4.72;3.70;;;22.40;99.90;;;;;;4986475;28;20223;-72
2023/07/02 09:19:04;;;;;;;3.75;3.00;;;22.30;99.90;;;;;;4984078;28;20234;-73
2023/07/02 09:21:53;;;;;;;4.43;3.55;;;22.30;99.90;;;;;;4972585;28;20314;-73
2023/07/02 09:24:42;;;;;;;4.75;3.70;;;22.30;99.90;;;;;;4986267;28;20284;-73
2023/07/02 09:27:38;;;;;;;7.32;4.03;;;22.30;99.90;;;;;;4991143;28;20247;-72
2023/07/02 09:30:28;;;;;;;4.38;3.97;;;22.30;99.90;;;;;;4985633;28;20226;-72
2023/07/02 09:33:18;;;;;;;6.53;4.00;;;22.50;99.90;;;;;;4998372;28;20238;-71
2023/07/02 09:36:07;;;;;;;5.10;3.90;;;22.50;99.90;;;;;;4966255;28;20235;-72
2023/07/02 09:38:57;;;;;;;5.55;3.60;;;22.70;99.90;;;;;;4987661;28;20238;-73
2023/07/02 09:41:49;;;;;;;5.60;3.55;;;22.50;99.90;;;;;;4976418;28;20243;-74
2023/07/02 09:44:40;;;;;;;4.28;3.40;;;22.50;99.90;;;;;;4978257;28;20226;-73
2023/07/02 09:47:32;;;;;;;4.00;3.30;;;22.50;99.90;;;;;;4980688;28;20222;-74
2023/07/02 09:50:24;;;;;;;4.30;3.13;;;22.50;99.90;;;;;;4996558;28;20237;-73
2023/07/02 09:53:13;;;;;;;3.20;2.90;;;22.60;99.90;;;;;;4982361;28;20711;-72
2023/07/02 09:56:02;;;;;;;3.58;3.25;;;23.30;99.90;;;;;;4998749;28;20226;-72
2023/07/02 09:58:51;;;;;;;4.40;2.95;;;24.10;99.90;;;;;;4990341;28;20991;-72
2023/07/02 10:01:40;;;;;;;3.00;2.70;;;24.10;99.90;;;;;;4984481;28;20230;-72
2023/07/02 10:04:40;;;;;;;3.17;2.65;;;24.20;99.90;;;;;;4985938;28;20257;-73
2023/07/02 10:07:32;;;;;;;3.20;2.90;;;24.50;99.90;;;;;;4980224;28;20590;-73
2023/07/02 10:10:28;;;;;;;3.35;3.00;;;25.50;99.90;;;;;;4994894;28;20230;-73
2023/07/02 10:13:28;;;;;;;3.47;2.80;;;26.10;99.90;;;;;;4981129;28;20274;-72
2023/07/02 10:16:16;;;;;;;3.17;2.80;;;25.50;99.90;;;;;;4984761;28;20226;-73
2023/07/02 10:19:13;;;;;;;2.67;2.47;;;25.40;99.90;;;;;;4992641;28;20215;-73
2023/07/02 10:22:04;;;;;;;3.88;2.25;;;25.10;99.90;;;;;;4983057;28;20233;-73
2023/07/02 10:25:07;;;;;;;3.38;2.58;;;24.70;99.90;;;;;;4986938;28;20226;-72
2023/07/02 10:27:56;;;;;;;3.75;2.40;;;24.60;99.90;;;;;;4979157;28;20332;-72
2023/07/02 10:30:45;;;;;;;3.33;2.22;;;24.70;99.90;;;;;;4976234;28;20304;-73
2023/07/02 10:33:34;;;;;;;2.63;2.25;;;25.20;99.90;;;;;;4982659;28;20227;-72
2023/07/02 10:36:24;;;;;;;3.33;2.70;;;25.50;99.90;;;;;;4978659;28;20238;-73
2023/07/02 10:39:14;;;;;;;5.20;2.50;;;26.30;99.90;;;;;;4991611;28;20238;-72
2023/07/02 10:42:07;;;;;;;3.25;2.60;;;26.50;99.90;;;;;;4980102;28;20223;-74
2023/07/02 10:44:56;;;;;;;3.42;2.60;;;26.10;99.90;;;;;;4978095;28;20255;-74
2023/07/02 10:47:45;;;;;;;7.43;3.72;;;25.80;99.90;;;;;;4992036;28;20304;-73
2023/07/02 10:50:34;;;;;;;4.95;2.40;;;25.80;99.90;;;;;;4968568;28;20227;-72
2023/07/02 10:53:24;;;;;;;3.50;2.97;;;25.30;99.90;;;;;;4994080;28;20349;-72
2023/07/02 10:56:17;;;;;;;3.05;2.75;;;24.80;99.90;;;;;;4996977;28;20234;-73
2023/07/02 10:59:07;;;;;;;5.70;3.40;;;24.30;99.90;;;;;;4978463;28;20300;-73
2023/07/02 11:02:01;;;;;;;3.95;2.90;;;23.80;99.90;;;;;;4975507;28;20424;-73
2023/07/02 11:04:50;;;;;;;4.50;2.72;;;23.30;99.90;;;;;;4996441;28;20536;-74
2023/07/02 11:07:40;;;;;;;3.55;2.50;;;23.30;99.90;;;;;;4975358;28;20215;-73
2023/07/02 11:10:29;;;;;;;5.65;3.40;;;23.10;99.90;;;;;;4972901;28;20679;-73
2023/07/02 11:13:19;;;;;;;4.25;3.10;;;23.10;99.90;;;;;;4978717;28;20241;-72
2023/07/02 11:16:25;;;;;;;3.10;2.80;;;23.00;99.90;;;;;;4984936;28;20234;-72
2023/07/02 11:19:14;;;;;;;3.03;2.70;;;22.90;99.90;;;;;;4980381;28;20285;-72
2023/07/02 11:22:03;;;;;;;3.85;2.58;;;22.80;99.90;;;;;;4985876;28;20250;-72
2023/07/02 11:24:52;;;;;;;3.80;2.95;;;22.60;99.90;;;;;;4984698;28;20759;-70
2023/07/02 11:27:41;;;;;;;4.70;2.78;;;22.50;99.90;;;;;;4975836;28;20220;-73
2023/07/02 11:30:31;;;;;;;3.85;2.50;;;22.60;99.90;;;;;;4996841;28;20270;-72
2023/07/02 11:33:21;;;;;;;2.33;2.05;;;24.30;99.90;;;;;;4990223;28;20238;-73
2023/07/02 11:36:21;;;;;;;3.47;1.90;;;27.50;99.90;;;;;;4986080;28;20360;-73
2023/07/02 11:39:10;;;;;;;3.03;2.15;;;30.30;99.90;;;;;;4983104;28;20887;-71
2023/07/02 11:41:59;;;;;;;2.00;1.80;;;34.30;99.90;;;;;;4972333;28;20746;-72
2023/07/02 11:44:48;;;;;;;3.15;2.10;;;34.80;96.30;;;;;;4975425;28;20927;-73
2023/07/02 11:47:38;;;;;;;5.90;2.17;;;32.60;97.90;;;;;;4985638;28;20237;-74
2023/07/02 11:50:30;;;;;;;4.60;2.20;;;30.10;99.60;;;;;;4971302;28;20222;-72
2023/07/02 11:53:19;;;;;;;2.85;2.50;;;28.10;99.90;;;;;;4976023;28;20313;-72
2023/07/02 11:56:09;;;;;;;2.93;2.40;;;26.80;99.90;;;;;;4982092;28;20447;-73
2023/07/02 11:58:58;;;;;;;4.10;2.30;;;28.40;99.90;;;;;;4983590;28;20244;-71
2023/07/02 12:01:49;;;;;;;3.83;2.15;;;29.00;99.90;;;;;;4986061;28;20241;-71
2023/07/02 12:04:39;;;;;;;3.78;2.28;;;35.40;99.90;;;;;;4962493;28;20225;-71
2023/07/02 12:07:30;;;;;;;3.47;2.28;;;38.00;92.50;;;;;;4980719;28;20215;-76
2023/07/02 12:10:19;;;;;;;6.20;2.30;;;36.30;90.30;;;;;;4972444;28;20335;-74
2023/07/02 12:13:08;;;;;;;2.78;2.10;;;32.50;92.90;;;;;;4988869;28;20234;-75
2023/07/02 12:15:57;;;;;;;3.20;2.40;;;30.30;95.70;;;;;;4978627;28;20239;-77
2023/07/02 12:18:46;;;;;;;3.05;2.17;;;29.50;98.60;;;;;;4984706;28;20222;-75
2023/07/02 12:21:34;;;;;;;2.85;2.00;;;30.50;99.90;;;;;;4979872;28;20230;-74
2023/07/02 12:24:25;;;;;;;2.38;1.90;;;35.10;95.20;;;;;;4981443;28;20242;-76
2023/07/02 12:27:14;;;;;;;2.97;2.10;;;36.20;85.50;;;;;;4983733;28;20613;-75
2023/07/02 12:30:03;;;;;;;3.75;2.03;;;36.60;85.70;;;;;;4981235;28;20724;-76
2023/07/02 12:32:52;;;;;;;4.40;2.10;;;36.60;83.10;;;;;;4975644;28;20710;-76
2023/07/02 12:35:41;;;;;;;2.33;2.10;;;33.40;85.90;;;;;;4975449;28;20377;-77
2023/07/02 12:38:30;;;;;;;1.73;1.63;;;35.80;84.60;;;;;;4985737;28;20235;-77
2023/07/02 12:41:20;;;;;;;2.20;2.08;;;34.50;82.50;;;;;;4977701;28;21017;-77
2023/07/02 12:44:09;;;;;;;6.57;2.20;;;31.70;89.50;;;;;;4986575;28;20436;-76
2023/07/02 12:46:57;;;;;;;4.07;1.80;;;33.40;89.20;;;;;;4982958;28;20222;-76
2023/07/02 12:49:47;;;;;;;6.97;2.00;;;36.20;79.20;;;;;;4975470;28;20217;-76
2023/07/02 12:52:36;;;;;;;7.13;2.00;;;32.40;79.00;;;;;;4977817;28;20329;-77
2023/07/02 12:55:25;;;;;;;2.92;1.90;;;31.30;84.30;;;;;;4971347;28;20234;-77
2023/07/02 12:58:15;;;;;;;4.32;1.80;;;33.50;81.50;;;;;;4978891;28;20516;-77
2023/07/02 13:01:04;;;;;;;4.20;2.20;;;32.50;77.10;;;;;;4992871;28;20305;-77
2023/07/02 13:03:53;;;;;;;4.88;1.95;;;30.40;82.80;;;;;;4994788;28;20829;-77
2023/07/02 13:06:44;;;;;;;2.72;1.90;;;29.30;83.40;;;;;;4976004;28;20222;-78
2023/07/02 13:09:33;;;;;;;5.68;1.83;;;28.40;84.80;;;;;;4985557;28;20248;-78
2023/07/02 13:12:23;;;;;;;2.35;1.63;;;27.90;82.60;;;;;;4986092;28;20309;-76
2023/07/02 13:15:13;;;;;;;2.30;1.85;;;27.50;83.80;;;;;;4968843;28;20234;-77
2023/07/02 13:18:03;;;;;;;5.72;1.80;;;27.20;85.10;;;;;;4981935;28;20234;-76
2023/07/02 13:20:51;;;;;;;5.95;1.90;;;27.10;83.80;;;;;;4983272;28;20238;-74
2023/07/02 13:23:40;;;;;;;4.40;1.77;;;26.80;85.50;;;;;;4976309;28;20215;-74
2023/07/02 13:26:30;;;;;;;3.25;1.83;;;26.70;83.80;;;;;;4984099;28;20231;-75
2023/07/02 13:29:18;;;;;;;2.35;1.70;;;26.60;84.60;;;;;;4986298;28;20320;-76
2023/07/02 13:32:11;;;;;;;2.30;2.08;;;26.60;84.10;;;;;;4979956;28;20223;-75
2023/07/02 13:35:00;;;;;;;3.40;2.00;;;26.60;83.60;;;;;;4977412;28;20223;-75
2023/07/02 13:37:49;;;;;;;3.20;1.95;;;26.40;84.40;;;;;;4975320;28;20338;-76
2023/07/02 13:40:38;;;;;;;4.03;1.98;;;26.40;85.60;;;;;;4981258;28;20219;-76
2023/07/02 13:43:27;;;;;;;4.63;2.10;;;26.10;85.00;;;;;;4976951;28;20223;-76
2023/07/02 13:46:16;;;;;;;3.72;1.80;;;26.00;87.50;;;;;;4977870;28;20231;-77
2023/07/02 13:49:07;;;;;;;3.97;2.13;;;25.70;86.20;;;;;;4980849;28;21073;-75
2023/07/02 13:51:56;;;;;;;4.32;2.10;;;25.80;85.80;;;;;;4983990;28;20216;-77
2023/07/02 13:54:45;;;;;;;7.47;2.33;;;25.80;87.30;;;;;;4982897;28;20228;-78
2023/07/02 13:57:34;;;;;;;3.35;1.80;;;25.90;87.40;;;;;;4972024;28;20215;-76
2023/07/02 14:00:24;;;;;;;4.00;2.15;;;25.80;87.90;;;;;;4979321;28;20231;-76
2023/07/02 14:03:13;;;;;;;3.65;2.17;;;25.80;86.70;;;;;;4982579;28;20230;-77
2023/07/02 14:06:02;;;;;;;2.60;2.00;;;25.80;86.30;;;;;;4980112;28;20726;-75
2023/07/02 14:08:51;;;;;;;3.65;2.00;;;25.70;88.00;;;;;;4979599;28;20223;-76
2023/07/02 14:11:42;;;;;;;8.35;1.90;;;25.80;88.30;;;;;;4978151;28;20223;-76
2023/07/02 14:14:32;;;;;;;4.25;2.10;;;25.70;86.50;;;;;;4977570;28;20230;-75
2023/07/02 14:17:23;;;;;;;6.72;2.00;;;25.80;85.80;;;;;;4984901;28;20223;-75
2023/07/02 14:20:14;;;;;;;2.30;1.80;;;25.90;83.70;;;;;;4977047;28;20274;-74
2023/07/02 14:23:03;;;;;;;6.85;2.00;;;25.80;84.20;;;;;;4974860;28;20580;-75
2023/07/02 14:25:52;;;;;;;1.95;1.75;;;25.80;86.90;;;;;;4981907;28;20301;-76
2023/07/02 14:28:42;;;;;;;3.53;2.42;;;25.90;83.70;;;;;;4978361;28;20211;-76
2023/07/02 14:31:31;;;;;;;3.75;2.30;;;25.90;83.90;;;;;;4981468;28;20757;-75
2023/07/02 14:34:21;;;;;;;3.35;2.20;;;25.80;82.80;;;;;;4964167;28;20313;-76